createdAt,value
2018-02-01T00:00:19.590Z,3.87
2018-02-01T00:02:47.255Z,3.63
2018-02-01T00:05:15.104Z,8.57
2018-02-01T00:07:42.802Z,2.78
2018-02-01T00:10:10.775Z,6.95
2018-02-01T00:12:38.473Z,6.03
2018-02-01T00:15:06.197Z,7.90
2018-02-01T00:17:33.933Z,5.03
2018-02-01T00:20:01.871Z,8.25
2018-02-01T00:22:29.488Z,2.95
2018-02-01T00:24:57.173Z,7.93
2018-02-01T00:27:24.923Z,8.10
2018-02-01T00:29:53.045Z,16.65
2018-02-01T00:32:20.737Z,12.40
2018-02-01T00:34:48.443Z,3.65
2018-02-01T00:37:16.176Z,6.55
2018-02-01T00:39:43.914Z,5.78
2018-02-01T00:42:11.729Z,3.35
2018-02-01T00:44:39.608Z,1.85
2018-02-01T00:47:07.309Z,3.25
2018-02-01T00:49:34.978Z,1.45
2018-02-01T00:52:02.927Z,11.65
2018-02-01T00:54:30.614Z,6.72
2018-02-01T00:56:58.352Z,15.30
2018-02-01T00:59:26.051Z,5.60
2018-02-01T01:01:53.735Z,6.87
2018-02-01T01:04:21.721Z,4.72
2018-02-01T01:06:49.418Z,5.50
2018-02-01T01:09:17.052Z,8.63
2018-02-01T01:11:44.821Z,14.10
2018-02-01T01:14:12.805Z,9.68
2018-02-01T01:16:40.468Z,8.98
2018-02-01T01:19:08.451Z,4.25
2018-02-01T01:21:36.105Z,11.12
2018-02-01T01:24:03.783Z,11.70
2018-02-01T01:26:31.475Z,6.50
2018-02-01T01:28:59.092Z,9.40
2018-02-01T01:31:26.753Z,5.72
2018-02-01T01:33:54.486Z,9.57
2018-02-01T01:36:22.113Z,7.68
2018-02-01T01:38:49.737Z,9.88
2018-02-01T01:41:17.389Z,9.18
2018-02-01T01:43:45.023Z,9.48
2018-02-01T01:46:12.717Z,11.95
2018-02-01T01:48:40.392Z,4.20
2018-02-01T01:51:08.015Z,5.95
2018-02-01T01:53:35.680Z,6.15
2018-02-01T01:56:03.298Z,6.43
2018-02-01T01:58:30.962Z,5.78
2018-02-01T02:00:58.609Z,5.03
2018-02-01T02:03:26.310Z,7.95
2018-02-01T02:05:53.929Z,13.07
2018-02-01T02:08:21.561Z,6.72
2018-02-01T02:10:49.223Z,7.75
2018-02-01T02:13:16.879Z,20.30
2018-02-01T02:15:44.830Z,9.00
2018-02-01T02:18:12.594Z,6.90
2018-02-01T02:20:40.229Z,5.10
2018-02-01T02:23:08.274Z,2.60
2018-02-01T02:25:36.242Z,5.15
2018-02-01T02:28:03.902Z,9.38
2018-02-01T02:30:31.543Z,5.90
2018-02-01T02:32:59.199Z,4.82
2018-02-01T02:35:26.852Z,9.45
2018-02-01T02:37:54.478Z,8.85
2018-02-01T02:40:22.142Z,6.55
2018-02-01T02:42:49.784Z,7.70
2018-02-01T02:45:17.458Z,4.65
2018-02-01T02:47:45.152Z,17.67
2018-02-01T02:50:12.806Z,9.15
2018-02-01T02:52:40.537Z,5.55
2018-02-01T02:55:08.390Z,5.20
2018-02-01T02:57:36.067Z,5.62
2018-02-01T03:00:03.761Z,6.37
2018-02-01T03:02:31.443Z,8.85
2018-02-01T03:04:59.141Z,8.55
2018-02-01T03:07:26.775Z,9.30
2018-02-01T03:09:54.684Z,9.25
2018-02-01T03:12:22.855Z,11.50
2018-02-01T03:14:50.573Z,7.18
2018-02-01T03:17:18.218Z,10.10
2018-02-01T03:19:46.236Z,7.87
2018-02-01T03:22:14.231Z,7.32
2018-02-01T03:24:50.300Z,8.93
2018-02-01T03:27:18.776Z,5.20
2018-02-01T03:29:46.416Z,10.88
2018-02-01T03:32:14.006Z,4.85
2018-02-01T03:34:41.676Z,4.85
2018-02-01T03:37:09.295Z,11.43
2018-02-01T03:39:36.895Z,6.97
2018-02-01T03:42:04.492Z,7.00
2018-02-01T03:44:32.136Z,8.35
2018-02-01T03:46:59.766Z,4.62
2018-02-01T03:49:27.436Z,11.90
2018-02-01T03:51:55.049Z,8.88
2018-02-01T03:54:22.672Z,7.70
2018-02-01T03:56:50.670Z,4.72
2018-02-01T03:59:18.279Z,3.03
2018-02-01T04:01:46.246Z,4.47
2018-02-01T04:04:13.898Z,11.80
2018-02-01T04:06:42.033Z,8.57
2018-02-01T04:09:09.681Z,7.72
2018-02-01T04:11:37.318Z,5.97
2018-02-01T04:14:05.339Z,13.70
2018-02-01T04:16:32.966Z,9.68
2018-02-01T04:19:00.575Z,6.25
2018-02-01T04:21:28.212Z,8.40
2018-02-01T04:23:55.877Z,7.55
2018-02-01T04:26:23.517Z,8.38
2018-02-01T04:28:51.235Z,17.08
2018-02-01T04:31:18.856Z,9.83
2018-02-01T04:33:46.452Z,4.65
2018-02-01T04:36:14.129Z,10.32
2018-02-01T04:38:41.744Z,6.95
2018-02-01T04:41:09.370Z,9.95
2018-02-01T04:43:37.038Z,8.02
2018-02-01T04:46:04.969Z,9.87
2018-02-01T04:48:32.608Z,4.80
2018-02-01T04:51:00.314Z,10.68
2018-02-01T04:53:28.067Z,9.68
2018-02-01T04:55:55.712Z,7.72
2018-02-01T04:58:23.394Z,17.27
2018-02-01T05:00:51.043Z,18.35
2018-02-01T05:03:19.030Z,10.20
2018-02-01T05:05:46.657Z,6.75
2018-02-01T05:08:14.315Z,8.85
2018-02-01T05:10:41.974Z,10.35
2018-02-01T05:13:09.647Z,9.38
2018-02-01T05:15:37.296Z,9.00
2018-02-01T05:18:04.997Z,9.88
2018-02-01T05:20:32.657Z,7.22
2018-02-01T05:23:00.323Z,18.50
2018-02-01T05:25:27.997Z,11.38
2018-02-01T05:27:55.581Z,8.00
2018-02-01T05:30:23.252Z,9.23
2018-02-01T05:32:50.952Z,14.68
2018-02-01T05:35:18.547Z,17.63
2018-02-01T05:37:46.226Z,13.68
2018-02-01T05:40:13.944Z,14.02
2018-02-01T05:42:41.672Z,13.73
2018-02-01T05:45:09.704Z,11.30
2018-02-01T05:47:37.441Z,14.32
2018-02-01T05:50:05.087Z,12.83
2018-02-01T05:52:32.966Z,9.47
2018-02-01T05:55:00.569Z,14.32
2018-02-01T05:57:28.604Z,6.43
2018-02-01T06:00:00.118Z,7.75
2018-02-01T06:02:27.855Z,8.10
2018-02-01T06:04:55.497Z,24.63
2018-02-01T06:07:23.116Z,7.87
2018-02-01T06:09:50.790Z,17.23
2018-02-01T06:12:18.424Z,11.88
2018-02-01T06:14:46.308Z,22.53
2018-02-01T06:17:14.023Z,5.57
2018-02-01T06:19:42.060Z,18.10
2018-02-01T06:22:09.740Z,18.73
2018-02-01T06:24:37.514Z,12.85
2018-02-01T06:27:05.530Z,15.10
2018-02-01T06:29:33.245Z,13.23
2018-02-01T06:32:01.006Z,13.20
2018-02-01T06:34:29.118Z,18.47
2018-02-01T06:36:57.168Z,13.07
2018-02-01T06:39:24.813Z,17.43
2018-02-01T06:41:52.564Z,10.60
2018-02-01T06:44:20.732Z,12.97
2018-02-01T06:46:48.824Z,29.23
2018-02-01T06:49:16.462Z,13.20
2018-02-01T06:51:44.119Z,24.73
2018-02-01T06:54:11.887Z,14.37
2018-02-01T06:56:39.584Z,12.93
2018-02-01T06:59:07.373Z,21.33
2018-02-01T07:01:35.140Z,22.20
2018-02-01T07:04:03.068Z,17.90
2018-02-01T07:06:30.793Z,30.13
2018-02-01T07:08:58.758Z,18.97
2018-02-01T07:11:26.526Z,15.23
2018-02-01T07:13:54.298Z,26.60
2018-02-01T07:16:22.011Z,24.58
2018-02-01T07:18:49.695Z,24.87
2018-02-01T07:21:17.435Z,23.65
2018-02-01T07:23:45.170Z,11.77
2018-02-01T07:26:13.111Z,16.05
2018-02-01T07:28:40.819Z,19.12
2018-02-01T07:31:09.254Z,28.27
2018-02-01T07:33:37.037Z,20.70
2018-02-01T07:36:04.892Z,21.53
2018-02-01T07:38:32.682Z,22.00
2018-02-01T07:41:00.489Z,23.47
2018-02-01T07:43:28.322Z,19.90
2018-02-01T07:45:56.112Z,19.40
2018-02-01T07:48:23.889Z,17.60
2018-02-01T07:50:52.047Z,23.10
2018-02-01T07:53:19.820Z,23.93
2018-02-01T07:55:47.633Z,27.10
2018-02-01T07:58:15.859Z,18.70
2018-02-01T08:00:43.656Z,24.17
2018-02-01T08:03:11.418Z,22.98
2018-02-01T08:05:39.251Z,15.68
2018-02-01T08:08:07.011Z,28.90
2018-02-01T08:10:34.825Z,27.23
2018-02-01T08:13:02.566Z,22.03
2018-02-01T08:15:30.335Z,29.63
2018-02-01T08:17:58.074Z,19.67
2018-02-01T08:20:26.371Z,21.67
2018-02-01T08:22:54.220Z,20.40
2018-02-01T08:25:22.348Z,18.13
2018-02-01T08:27:50.243Z,18.00
2018-02-01T08:30:18.011Z,14.87
2018-02-01T08:32:45.879Z,20.45
2018-02-01T08:35:13.629Z,34.23
2018-02-01T08:37:41.344Z,19.77
2018-02-01T08:40:09.090Z,22.23
2018-02-01T08:42:36.864Z,24.07
2018-02-01T08:45:04.692Z,19.47
2018-02-01T08:47:32.490Z,31.47
2018-02-01T08:50:00.294Z,19.90
2018-02-01T08:52:28.061Z,21.90
2018-02-01T08:54:55.880Z,23.17
2018-02-01T08:57:23.743Z,16.27
2018-02-01T08:59:51.858Z,12.97
2018-02-01T09:02:26.556Z,17.80
2018-02-01T09:04:56.327Z,17.20
2018-02-01T09:07:24.427Z,19.03
2018-02-01T09:09:52.220Z,21.57
2018-02-01T09:12:19.966Z,19.63
2018-02-01T09:14:52.480Z,16.90
2018-02-01T09:17:20.301Z,15.50
2018-02-01T09:19:49.290Z,18.20
2018-02-01T09:22:18.043Z,17.07
2018-02-01T09:24:51.337Z,21.42
2018-02-01T09:27:19.458Z,21.10
2018-02-01T09:29:49.653Z,19.87
2018-02-01T09:32:23.627Z,19.75
2018-02-01T09:34:57.098Z,21.53
2018-02-01T09:37:25.143Z,24.97
2018-02-01T09:39:53.045Z,18.10
2018-02-01T09:42:20.800Z,17.33
2018-02-01T09:44:49.028Z,20.00
2018-02-01T09:47:16.771Z,15.73
2018-02-01T09:49:44.514Z,18.40
2018-02-01T09:52:12.672Z,26.57
2018-02-01T09:54:40.450Z,25.83
2018-02-01T09:57:08.135Z,18.73
2018-02-01T09:59:46.106Z,23.40
2018-02-01T10:02:13.862Z,23.07
2018-02-01T10:04:41.579Z,20.23
2018-02-01T10:07:09.398Z,21.70
2018-02-01T10:09:37.080Z,30.80
2018-02-01T10:12:04.870Z,23.17
2018-02-01T10:14:32.652Z,19.53
2018-02-01T10:17:00.460Z,25.80
2018-02-01T10:19:28.200Z,22.47
2018-02-01T10:21:55.960Z,30.10
2018-02-01T10:24:23.677Z,22.90
2018-02-01T10:26:51.412Z,18.60
2018-02-01T10:29:19.163Z,26.93
2018-02-01T10:31:46.970Z,23.87
2018-02-01T10:34:19.873Z,16.43
2018-02-01T10:36:47.831Z,16.37
2018-02-01T10:39:15.696Z,31.33
2018-02-01T10:41:43.554Z,25.90
2018-02-01T10:44:11.698Z,25.23
2018-02-01T10:49:24.520Z,24.20
2018-02-01T10:51:53.155Z,23.97
2018-02-01T10:54:20.950Z,16.60
2018-02-01T10:56:50.718Z,20.53
2018-02-01T10:59:22.652Z,21.63
2018-02-01T11:01:51.795Z,14.93
2018-02-01T11:04:19.622Z,16.70
2018-02-01T11:06:47.366Z,19.47
2018-02-01T11:09:16.368Z,25.30
2018-02-01T11:11:44.156Z,22.37
2018-02-01T11:14:12.206Z,16.40
2018-02-01T11:16:40.019Z,18.10
2018-02-01T11:19:08.159Z,16.23
2018-02-01T11:21:35.958Z,17.90
2018-02-01T11:24:04.115Z,18.17
2018-02-01T11:26:31.892Z,17.00
2018-02-01T11:28:59.653Z,23.77
2018-02-01T11:31:27.805Z,22.00
2018-02-01T11:33:55.569Z,26.07
2018-02-01T11:36:23.427Z,20.53
2018-02-01T11:38:51.229Z,19.57
2018-02-01T11:41:19.008Z,16.70
2018-02-01T11:43:55.262Z,16.03
2018-02-01T11:46:25.694Z,26.30
2018-02-01T11:48:56.834Z,18.13
2018-02-01T11:51:25.012Z,16.37
2018-02-01T11:53:58.282Z,21.33
2018-02-01T11:56:26.041Z,18.17
2018-02-01T11:58:55.104Z,24.70
2018-02-01T12:01:23.316Z,15.93
2018-02-01T12:03:51.034Z,18.87
2018-02-01T12:06:18.968Z,19.40
2018-02-01T12:08:46.872Z,17.10
2018-02-01T12:11:14.702Z,16.87
2018-02-01T12:13:49.192Z,14.37
2018-02-01T12:16:17.468Z,15.70
2018-02-01T12:18:46.454Z,18.23
2018-02-01T12:21:14.143Z,17.23
2018-02-01T12:23:41.906Z,17.03
2018-02-01T12:26:09.752Z,15.70
2018-02-01T12:28:37.512Z,15.00
2018-02-01T12:31:05.266Z,16.00
2018-02-01T12:33:35.092Z,20.67
2018-02-01T12:36:09.234Z,24.53
2018-02-01T12:38:43.329Z,19.37
2018-02-01T12:41:11.944Z,20.97
2018-02-01T12:43:43.086Z,20.17
2018-02-01T12:46:11.030Z,16.07
2018-02-01T12:48:38.803Z,15.93
2018-02-01T12:51:06.614Z,17.03
2018-02-01T12:53:34.327Z,12.97
2018-02-01T12:56:06.300Z,16.53
2018-02-01T12:58:34.122Z,24.93
2018-02-01T13:01:02.992Z,16.17
2018-02-01T13:03:30.966Z,20.60
2018-02-01T13:06:03.048Z,16.93
2018-02-01T13:08:30.850Z,11.80
2018-02-01T13:11:03.094Z,19.30
2018-02-01T13:13:32.393Z,14.77
2018-02-01T13:16:03.851Z,13.77
2018-02-01T13:18:32.829Z,17.33
2018-02-01T13:21:00.618Z,10.03
2018-02-01T13:23:28.410Z,13.27
2018-02-01T13:25:56.180Z,15.10
2018-02-01T13:28:25.081Z,13.70
2018-02-01T13:30:54.262Z,11.33
2018-02-01T13:33:29.003Z,11.40
2018-02-01T13:35:56.903Z,8.93
2018-02-01T13:38:25.490Z,10.70
2018-02-01T13:40:53.264Z,13.80
2018-02-01T13:43:20.989Z,12.80
2018-02-01T13:45:52.640Z,12.03
2018-02-01T13:48:20.411Z,9.90
2018-02-01T13:50:51.183Z,12.70
2018-02-01T13:53:19.358Z,13.77
2018-02-01T13:55:50.435Z,13.00
2018-02-01T13:58:18.309Z,15.40
2018-02-01T14:00:46.486Z,11.20
2018-02-01T14:03:22.764Z,13.50
2018-02-01T14:06:02.704Z,17.50
2018-02-01T14:08:35.165Z,15.77
2018-02-01T14:11:04.840Z,10.13
2018-02-01T14:13:59.918Z,14.47
2018-02-01T14:16:34.534Z,10.83
2018-02-01T14:19:03.658Z,14.77
2018-02-01T14:21:33.687Z,11.03
2018-02-01T14:24:02.179Z,15.23
2018-02-01T14:26:30.017Z,11.47
2018-02-01T14:28:58.154Z,14.73
2018-02-01T14:31:39.854Z,9.33
2018-02-01T14:34:49.109Z,8.40
2018-02-01T14:37:17.338Z,8.27
2018-02-01T14:39:45.267Z,8.57
2018-02-01T14:42:13.121Z,9.63
2018-02-01T14:44:42.533Z,8.43
2018-02-01T14:49:44.347Z,8.17
2018-02-01T14:52:13.569Z,16.87
2018-02-01T14:54:43.474Z,11.90
2018-02-01T14:57:18.485Z,10.10
2018-02-01T14:59:46.306Z,6.70
2018-02-01T15:02:17.041Z,7.87
2018-02-01T15:04:54.474Z,8.00
2018-02-01T16:03:55.531Z,9.70
2018-02-01T16:06:23.259Z,10.10
2018-02-01T16:08:50.947Z,9.03
2018-02-01T16:11:18.730Z,10.50
2018-02-01T16:13:49.511Z,10.80
2018-02-01T16:16:17.305Z,11.30
2018-02-01T16:18:45.008Z,12.50
2018-02-01T16:21:12.782Z,11.43
2018-02-01T16:23:40.532Z,11.53
2018-02-01T16:26:08.356Z,12.80
2018-02-01T16:28:36.103Z,11.97
2018-02-01T16:31:03.837Z,11.53
2018-02-01T16:33:31.569Z,11.77
2018-02-01T16:35:59.396Z,14.40
2018-02-01T16:38:27.100Z,12.63
2018-02-01T16:40:54.915Z,12.03
2018-02-01T16:43:22.803Z,17.63
2018-02-01T16:45:51.620Z,12.53
2018-02-01T16:48:19.790Z,13.20
2018-02-01T16:50:48.632Z,12.97
2018-02-01T16:53:16.372Z,14.47
2018-02-01T16:55:44.567Z,15.53
2018-02-01T16:58:12.855Z,13.63
2018-02-01T17:00:44.184Z,15.20
2018-02-01T17:03:13.131Z,13.87
2018-02-01T17:05:42.435Z,19.13
2018-02-01T17:08:10.200Z,11.33
2018-02-01T17:10:38.076Z,11.27
2018-02-01T17:13:08.049Z,11.50
2018-02-01T17:15:35.857Z,12.67
2018-02-01T17:18:03.749Z,11.40
2018-02-01T17:20:31.895Z,14.20
2018-02-01T17:23:00.799Z,7.90
2018-02-01T17:25:28.719Z,11.50
2018-02-01T17:27:57.770Z,12.00
2018-02-01T17:30:25.949Z,12.13
2018-02-01T17:32:53.666Z,14.50
2018-02-01T17:35:21.520Z,11.87
2018-02-01T17:37:49.324Z,15.97
2018-02-01T17:40:17.061Z,19.30
2018-02-01T17:42:44.933Z,14.07
2018-02-01T17:45:12.682Z,14.03
2018-02-01T17:47:40.459Z,14.37
2018-02-01T17:50:08.205Z,15.73
2018-02-01T17:52:35.975Z,21.30
2018-02-01T17:55:03.785Z,15.90
2018-02-01T17:57:31.623Z,15.23
2018-02-01T17:59:59.934Z,20.27
2018-02-01T18:02:27.677Z,16.37
2018-02-01T18:04:55.383Z,22.00
2018-02-01T18:07:23.212Z,24.83
2018-02-01T18:09:50.978Z,19.17
2018-02-01T18:12:18.714Z,19.70
2018-02-01T18:14:46.601Z,24.80
2018-02-01T18:17:14.432Z,17.73
2018-02-01T18:19:42.186Z,22.70
2018-02-01T18:22:09.915Z,17.90
2018-02-01T18:24:37.634Z,20.47
2018-02-01T18:27:05.404Z,20.47
2018-02-01T18:29:33.616Z,18.33
2018-02-01T18:32:01.355Z,12.90
2018-02-01T18:34:29.114Z,15.63
2018-02-01T18:36:56.891Z,13.83
2018-02-01T18:39:24.616Z,13.30
2018-02-01T18:41:52.748Z,16.27
2018-02-01T18:44:20.612Z,16.70
2018-02-01T18:46:48.451Z,18.83
2018-02-01T18:49:16.189Z,14.20
2018-02-01T18:51:44.412Z,16.87
2018-02-01T18:54:12.150Z,14.13
2018-02-01T18:56:39.943Z,16.03
2018-02-01T18:59:07.700Z,17.73
2018-02-01T19:01:35.502Z,14.20
2018-02-01T19:04:03.276Z,16.73
2018-02-01T19:06:31.064Z,15.77
2018-02-01T19:08:59.952Z,14.03
2018-02-01T19:11:27.712Z,13.87
2018-02-01T19:13:56.205Z,15.27
2018-02-01T19:16:24.021Z,19.00
2018-02-01T19:18:54.182Z,11.97
2018-02-01T19:21:21.915Z,13.50
2018-02-01T19:23:49.662Z,14.20
2018-02-01T19:26:17.375Z,13.43
2018-02-01T19:28:45.228Z,11.90
2018-02-01T19:31:13.040Z,15.00
2018-02-01T19:33:42.440Z,14.57
2018-02-01T19:36:22.756Z,16.13
2018-02-01T19:38:51.394Z,9.80
2018-02-01T19:41:24.293Z,22.53
2018-02-01T19:43:58.522Z,13.37
2018-02-01T19:46:26.934Z,10.03
2018-02-01T19:52:06.670Z,19.87
2018-02-01T19:54:38.706Z,3.93
2018-02-01T19:57:08.778Z,9.80
2018-02-01T19:59:36.834Z,13.57
2018-02-01T20:02:06.174Z,4.37
2018-02-01T20:04:35.442Z,8.17
2018-02-01T20:07:03.951Z,7.20
2018-02-01T20:09:34.807Z,8.87
2018-02-01T20:12:07.994Z,15.20
2018-02-01T20:14:39.262Z,9.00
2018-02-01T20:17:08.737Z,8.77
2018-02-01T20:19:45.574Z,10.63
2018-02-01T20:22:28.395Z,17.87
2018-02-01T20:24:58.159Z,7.90
2018-02-01T20:27:28.134Z,11.87
2018-02-01T20:30:00.496Z,15.10
2018-02-01T20:32:29.763Z,6.93
2018-02-01T20:35:00.853Z,9.10
2018-02-01T20:37:34.890Z,14.87
2018-02-01T20:40:31.928Z,19.30
2018-02-01T20:43:05.736Z,19.20
2018-02-01T20:45:37.187Z,14.60
2018-02-01T20:48:12.505Z,18.13
2018-02-01T20:50:46.829Z,16.47
2018-02-01T20:53:24.177Z,25.70
2018-02-01T20:55:56.100Z,9.67
2018-02-01T20:58:23.987Z,15.53
2018-02-01T21:00:51.721Z,29.27
2018-02-01T21:03:22.540Z,10.13
2018-02-01T21:05:50.417Z,10.90
2018-02-01T21:08:25.986Z,12.73
2018-02-01T21:10:53.852Z,22.80
2018-02-01T21:13:21.644Z,14.10
2018-02-01T21:15:51.372Z,13.83
2018-02-01T21:18:30.182Z,15.53
2018-02-01T21:20:57.994Z,16.13
2018-02-01T21:23:32.227Z,14.13
2018-02-01T21:26:00.119Z,19.10
2018-02-01T21:28:39.661Z,15.83
2018-02-01T21:31:09.719Z,17.03
2018-02-01T21:33:44.467Z,22.43
2018-02-01T21:39:19.157Z,18.90
2018-02-01T21:41:47.993Z,12.83
2018-02-01T21:44:15.938Z,15.57
2018-02-01T21:46:54.879Z,19.60
2018-02-01T21:52:00.658Z,18.00
2018-02-01T21:54:32.543Z,13.27
2018-02-01T22:03:06.379Z,19.63
2018-02-01T22:05:34.904Z,11.67
2018-02-01T22:08:02.657Z,12.17
2018-02-01T22:10:35.998Z,21.53
2018-02-01T22:13:03.777Z,20.23
2018-02-01T22:15:31.949Z,15.53
2018-02-01T22:17:59.707Z,16.60
2018-02-01T22:20:27.833Z,19.03
2018-02-01T22:22:55.781Z,21.60
2018-02-01T22:25:23.626Z,27.47
2018-02-01T22:27:51.383Z,11.20
2018-02-01T22:30:19.140Z,17.97
2018-02-01T22:32:46.900Z,20.90
2018-02-01T22:35:14.897Z,15.80
2018-02-01T22:37:42.597Z,20.80
2018-02-01T22:40:10.398Z,24.97
2018-02-01T22:42:39.358Z,19.03
2018-02-01T22:45:07.126Z,33.33
2018-02-01T22:47:34.937Z,20.87
2018-02-01T22:50:02.824Z,25.83
2018-02-01T22:52:30.609Z,23.63
2018-02-01T22:54:59.633Z,19.37
2018-02-01T22:57:27.414Z,32.20
2018-02-01T22:59:55.132Z,21.80
2018-02-01T23:02:24.060Z,20.03
2018-02-01T23:04:52.245Z,18.97
2018-02-01T23:07:20.036Z,16.33
2018-02-01T23:09:48.477Z,17.73
2018-02-01T23:14:54.019Z,17.80
2018-02-01T23:17:21.826Z,19.27
2018-02-01T23:19:50.936Z,16.77
2018-02-01T23:22:18.654Z,18.87
2018-02-01T23:24:46.419Z,11.20
2018-02-01T23:27:14.202Z,14.60
2018-02-01T23:29:42.053Z,14.80
2018-02-01T23:32:09.965Z,18.00
2018-02-01T23:34:37.836Z,11.87
2018-02-01T23:37:05.620Z,13.93
2018-02-01T23:39:33.846Z,17.67
2018-02-01T23:42:01.557Z,13.50
2018-02-01T23:44:30.255Z,28.03
2018-02-01T23:46:59.425Z,13.30
2018-02-01T23:49:27.730Z,17.40
2018-02-01T23:51:56.037Z,18.10
2018-02-01T23:54:24.384Z,20.37
2018-02-01T23:56:52.228Z,18.90
2018-02-01T23:59:19.980Z,18.40
